Saint Helena Island, SC (29920)

4:28 PM EST on December 03, 2016 (GMT -0500)
Tarpon Blvd Ocean Front | | Change Station

Elev 35 ft 32.31 °N, 80.49 °W | Updated 14 seconds ago

Haze
Haze
55.3 °F
Feels Like 55.3 °F
N
3.0
Wind Variable Wind from ENE
Gusts 13.0 mph

Today
High -- | Low -- °F
--% Chance of Precip.
Yesterday
High -- | Low -- °F
Precip. -- in
Pressure 30.22 in
Visibility 5.0 miles
Clouds Clear
Dew Point 45 °F
Humidity 68%
Rainfall 0.00 in
Snow Depth Not available.
7:07 AM 5:16 PM
Waxing Crescent, 17% visible
METAR KARW 032115Z AUTO 09004KT 5SM HZ CLR 13/05 A3022 RMK AO2
Pressure 30.22 in
Visibility 5.0 miles
Clouds Clear
Dew Point 45 °F
Humidity 68%
Rainfall 0.00 in
Snow Depth Not available.
7:07 AM 5:16 PM
Waxing Crescent, 17% visible
METAR KARW 032115Z AUTO 09004KT 5SM HZ CLR 13/05 A3022 RMK AO2

10-Day Weather Forecast

Almanac

Astronomy

Dec. 03, 2016 Rise Set
Actual Time
Civil Twilight
Nautical Twilight
Astronomical Twilight
Moon
Length of Visible Light
Length of Day
Tomorrow will be .
, % of the Moon is Illuminated

Today's Extremes

State Highs State Lows

Community

WunderPhotos

Upload Photos

1,955,498 photos uploaded!

WunderBlog® & News

Nearby

Air Quality

  Air Quality AQ Index Pollutant
Not available.

Snow Depth

Station Depth Elevation

Earthquake Activity

City Distance Mag. Time & Date
Minimum magnitude displayed is 2.5.

Coastal Water Temperatures

Place Temperature

Stations

Nearby Weather Stations

Station Location Temp. Windchill Dew Point Humidity Wind Precip. Elev Updated Type
                   

Watches & Warnings

There are currently no watches in effect.